Time;durP1;ratioP1;P1;durP2;ratioP2;P2;SDS_P1;SDS_P2;PMS_P1;PMS_P2;Temp;Humidity;BMP_temperature;BMP_pressure;BME280_temperature;BME280_humidity;BME280_pressure;Samples;Min_cycle;Max_cycle;Signal;HPM_P1;HPM_P2
2023/07/04 00:01:36;;;;;;;5.00;3.50;;;;;;;;;;5013289;28;21001;-57
2023/07/04 00:04:07;;;;;;;6.20;3.03;;;;;;;;;;5013490;28;20529;-57
2023/07/04 00:06:36;;;;;;;3.83;2.83;;;;;;;;;;5013502;28;20457;-57
2023/07/04 00:09:04;;;;;;;4.00;3.60;;;;;;;;;;5013357;28;20870;-56
2023/07/04 00:11:31;;;;;;;9.07;3.43;;;;;;;;;;5013250;28;20459;-56
2023/07/04 00:13:58;;;;;;;5.30;3.23;;;;;;;;;;5013147;28;20451;-57
2023/07/04 00:16:25;;;;;;;8.40;3.57;;;;;;;;;;5013389;28;20446;-57
2023/07/04 00:18:52;;;;;;;5.90;3.97;;;;;;;;;;5013164;28;20486;-54
2023/07/04 00:21:20;;;;;;;6.00;3.87;;;;;;;;;;5013209;28;20458;-54
2023/07/04 00:23:52;;;;;;;5.47;3.70;;;;;;;;;;5013240;28;20488;-57
2023/07/04 00:26:20;;;;;;;7.83;4.43;;;;;;;;;;5013069;28;20462;-58
2023/07/04 00:28:47;;;;;;;4.90;3.73;;;;;;;;;;5013213;28;20495;-57
2023/07/04 00:31:15;;;;;;;7.50;4.20;;;;;;;;;;5012988;28;20981;-57
2023/07/04 00:33:44;;;;;;;6.97;4.23;;;;;;;;;;5013187;28;20546;-53
2023/07/04 00:36:14;;;;;;;5.97;4.40;;;;;;;;;;5012868;28;20457;-57
2023/07/04 00:38:44;;;;;;;8.23;4.00;;;;;;;;;;5012899;28;20572;-56
2023/07/04 00:41:13;;;;;;;9.17;3.97;;;;;;;;;;5012894;28;20798;-54
2023/07/04 00:44:00;;;;;;;6.87;4.50;;;;;;;;;;5012850;28;20944;-57
2023/07/04 00:46:37;;;;;;;7.87;3.90;;;;;;;;;;5013034;28;20945;-55
2023/07/04 00:49:06;;;;;;;5.90;4.20;;;;;;;;;;5012990;28;20445;-56
2023/07/04 00:51:34;;;;;;;10.10;4.33;;;;;;;;;;5012791;28;20537;-56
2023/07/04 00:54:04;;;;;;;5.60;4.00;;;;;;;;;;5013039;28;20456;-54
2023/07/04 00:56:31;;;;;;;6.50;4.77;;;;;;;;;;5012802;28;20557;-56
2023/07/04 00:58:59;;;;;;;7.50;4.47;;;;;;;;;;5012805;28;20583;-56
2023/07/04 01:01:26;;;;;;;6.93;4.10;;;;;;;;;;5012892;28;20468;-56
2023/07/04 01:03:53;;;;;;;6.07;4.13;;;;;;;;;;5012741;28;20875;-53
2023/07/04 01:06:24;;;;;;;9.37;5.63;;;;;;;;;;5012726;28;20489;-56
2023/07/04 01:08:56;;;;;;;8.13;4.30;;;;;;;;;;5015979;28;20458;-57
2023/07/04 01:11:29;;;;;;;8.77;4.17;;;;;;;;;;5016590;28;20454;-56
2023/07/04 01:13:56;;;;;;;5.80;4.20;;;;;;;;;;5016475;28;20465;-56
2023/07/04 01:16:23;;;;;;;3.47;3.17;;;;;;;;;;5016340;28;20692;-57
2023/07/04 01:18:51;;;;;;;18.23;4.30;;;;;;;;;;5016465;28;20858;-56
2023/07/04 01:21:20;;;;;;;5.63;3.77;;;;;;;;;;5016425;28;20548;-57
2023/07/04 01:23:52;;;;;;;8.33;4.50;;;;;;;;;;5016320;28;20548;-55
2023/07/04 01:26:25;;;;;;;7.00;4.37;;;;;;;;;;5016249;28;20864;-57
2023/07/04 01:28:53;;;;;;;8.27;3.97;;;;;;;;;;5016084;28;20459;-57
2023/07/04 01:31:20;;;;;;;10.40;3.83;;;;;;;;;;5016266;28;20458;-56
2023/07/04 01:33:48;;;;;;;5.03;3.73;;;;;;;;;;5016200;28;20457;-56
2023/07/04 01:36:15;;;;;;;8.87;4.20;;;;;;;;;;5016006;28;20456;-56
2023/07/04 01:38:41;;;;;;;4.83;3.43;;;;;;;;;;5016012;28;20504;-55
2023/07/04 01:41:08;;;;;;;5.30;3.57;;;;;;;;;;5015935;28;20542;-56
2023/07/04 01:43:37;;;;;;;5.73;4.00;;;;;;;;;;5015839;28;20457;-56
2023/07/04 01:46:04;;;;;;;9.93;4.00;;;;;;;;;;5016031;28;20453;-56
2023/07/04 01:48:32;;;;;;;5.17;3.53;;;;;;;;;;5015892;28;20517;-57
2023/07/04 01:50:58;;;;;;;6.00;4.20;;;;;;;;;;5015840;28;20476;-56
2023/07/04 01:53:25;;;;;;;6.37;3.90;;;;;;;;;;5015715;28;20912;-56
2023/07/04 01:55:52;;;;;;;5.57;3.80;;;;;;;;;;5015396;28;20484;-56
2023/07/04 01:58:19;;;;;;;7.43;4.30;;;;;;;;;;5015767;28;20836;-55
2023/07/04 02:00:47;;;;;;;8.10;3.30;;;;;;;;;;5015692;28;20451;-57
2023/07/04 02:03:14;;;;;;;6.07;3.77;;;;;;;;;;5015555;28;20457;-56
2023/07/04 02:05:41;;;;;;;5.90;3.50;;;;;;;;;;5015494;28;20817;-57
2023/07/04 02:08:11;;;;;;;4.80;3.30;;;;;;;;;;5015634;28;20463;-57
2023/07/04 02:10:38;;;;;;;6.17;4.00;;;;;;;;;;5015341;28;20931;-57
2023/07/04 02:13:05;;;;;;;5.47;3.57;;;;;;;;;;5015447;28;20787;-56
2023/07/04 02:15:32;;;;;;;4.60;3.00;;;;;;;;;;5015426;28;20450;-57
2023/07/04 02:18:00;;;;;;;4.77;3.60;;;;;;;;;;5015273;28;20453;-56
2023/07/04 02:20:27;;;;;;;5.07;3.23;;;;;;;;;;5014483;28;20461;-57
2023/07/04 02:22:54;;;;;;;5.70;3.60;;;;;;;;;;5015102;28;21000;-56
2023/07/04 02:25:21;;;;;;;4.53;3.27;;;;;;;;;;5014999;28;20451;-57
2023/07/04 02:27:48;;;;;;;4.70;3.20;;;;;;;;;;5015241;28;20457;-56
2023/07/04 02:30:15;;;;;;;6.70;3.23;;;;;;;;;;5015083;28;20458;-57
2023/07/04 02:32:42;;;;;;;5.90;3.73;;;;;;;;;;5015030;28;20460;-57
2023/07/04 02:35:10;;;;;;;5.93;3.57;;;;;;;;;;5015001;28;20883;-57
2023/07/04 02:37:37;;;;;;;6.70;3.67;;;;;;;;;;5014774;28;20547;-57
2023/07/04 02:40:04;;;;;;;8.70;3.40;;;;;;;;;;5014941;28;20486;-57
2023/07/04 02:42:31;;;;;;;4.50;2.83;;;;;;;;;;5014888;28;20539;-57
2023/07/04 02:44:58;;;;;;;8.90;3.93;;;;;;;;;;5014625;28;20949;-56
2023/07/04 02:47:26;;;;;;;8.60;3.60;;;;;;;;;;5014705;28;20464;-57
2023/07/04 02:49:53;;;;;;;4.27;3.17;;;;;;;;;;5014602;28;20450;-56
2023/07/04 02:52:23;;;;;;;5.73;3.87;;;;;;;;;;5014516;28;20470;-56
2023/07/04 02:54:50;;;;;;;5.97;4.37;;;;;;;;;;5014711;28;20460;-57
2023/07/04 02:57:17;;;;;;;8.87;4.13;;;;;;;;;;5014279;28;20480;-57
2023/07/04 02:59:44;;;;;;;7.40;3.80;;;;;;;;;;5014444;28;20491;-57
2023/07/04 03:02:11;;;;;;;8.00;3.30;;;;;;;;;;5014432;28;20449;-57
2023/07/04 03:04:38;;;;;;;6.53;3.47;;;;;;;;;;5014221;28;20552;-57
2023/07/04 03:07:05;;;;;;;3.40;3.10;;;;;;;;;;5014520;28;20453;-58
2023/07/04 03:09:34;;;;;;;4.63;3.20;;;;;;;;;;5014318;28;20541;-59
2023/07/04 03:12:01;;;;;;;5.57;3.30;;;;;;;;;;5014296;28;20451;-57
2023/07/04 03:14:28;;;;;;;5.87;3.77;;;;;;;;;;5014200;28;20565;-57
2023/07/04 03:16:55;;;;;;;6.07;3.53;;;;;;;;;;5014092;28;20452;-57
2023/07/04 03:19:22;;;;;;;4.37;3.13;;;;;;;;;;5013908;28;20486;-56
2023/07/04 03:21:48;;;;;;;4.00;3.07;;;;;;;;;;5014173;28;20457;-57
2023/07/04 03:24:15;;;;;;;6.27;3.87;;;;;;;;;;5014071;28;20849;-57
2023/07/04 03:26:45;;;;;;;4.83;3.50;;;;;;;;;;5014043;28;20542;-57
2023/07/04 03:29:11;;;;;;;3.73;3.43;;;;;;;;;;5013959;28;20457;-56
2023/07/04 03:31:39;;;;;;;7.30;3.80;;;;;;;;;;5013830;28;20539;-58
2023/07/04 03:34:06;;;;;;;5.40;3.40;;;;;;;;;;5013941;28;20475;-56
2023/07/04 03:36:32;;;;;;;9.70;4.10;;;;;;;;;;5013962;28;20456;-56
2023/07/04 03:38:59;;;;;;;4.77;3.40;;;;;;;;;;5013767;28;20564;-57
2023/07/04 03:41:26;;;;;;;6.00;3.50;;;;;;;;;;5013752;28;20453;-56
2023/07/04 03:43:54;;;;;;;4.57;3.83;;;;;;;;;;5013660;28;20462;-56
2023/07/04 03:46:21;;;;;;;6.93;3.10;;;;;;;;;;5013444;28;20465;-54
2023/07/04 03:48:49;;;;;;;3.80;3.30;;;;;;;;;;5013531;28;20544;-57
2023/07/04 03:51:16;;;;;;;4.53;3.30;;;;;;;;;;5013664;28;20453;-56
2023/07/04 03:53:43;;;;;;;5.83;3.20;;;;;;;;;;5013604;28;20545;-57
2023/07/04 03:56:10;;;;;;;6.30;3.50;;;;;;;;;;5013439;28;20868;-57
2023/07/04 03:58:38;;;;;;;5.80;3.60;;;;;;;;;;5013345;28;20450;-56
2023/07/04 04:01:06;;;;;;;4.73;3.70;;;;;;;;;;5013457;28;20450;-57
2023/07/04 04:03:37;;;;;;;9.23;3.30;;;;;;;;;;5013573;28;20485;-58
2023/07/04 04:06:04;;;;;;;4.70;3.70;;;;;;;;;;5013574;28;20464;-57
2023/07/04 04:08:31;;;;;;;5.20;2.83;;;;;;;;;;5013465;28;20540;-55
2023/07/04 04:10:58;;;;;;;3.53;3.20;;;;;;;;;;5013415;28;20547;-57
2023/07/04 04:13:25;;;;;;;6.37;3.20;;;;;;;;;;5013261;28;20461;-57
2023/07/04 04:15:52;;;;;;;4.93;3.60;;;;;;;;;;5013497;28;20457;-57
2023/07/04 04:18:20;;;;;;;3.60;3.13;;;;;;;;;;5013155;28;20968;-57
2023/07/04 04:20:47;;;;;;;6.53;4.23;;;;;;;;;;5013208;28;20573;-57
2023/07/04 04:23:15;;;;;;;3.30;3.00;;;;;;;;;;5013129;28;20457;-57
2023/07/04 04:25:42;;;;;;;5.47;3.57;;;;;;;;;;5013128;28;20453;-57
2023/07/04 04:28:09;;;;;;;6.63;3.90;;;;;;;;;;5012975;28;20896;-57
2023/07/04 04:30:36;;;;;;;5.13;3.73;;;;;;;;;;5013280;28;20584;-57
2023/07/04 04:33:03;;;;;;;6.80;3.80;;;;;;;;;;5013113;28;21023;-57
2023/07/04 04:35:32;;;;;;;4.93;3.47;;;;;;;;;;5013133;28;20452;-58
2023/07/04 04:37:59;;;;;;;7.90;3.60;;;;;;;;;;5012998;28;20453;-57
2023/07/04 04:40:28;;;;;;;4.93;4.43;;;;;;;;;;5013351;28;20513;-57
2023/07/04 04:42:55;;;;;;;4.97;3.30;;;;;;;;;;5014760;28;20457;-55
2023/07/04 04:45:23;;;;;;;5.43;3.40;;;;;;;;;;5017100;28;20451;-55
2023/07/04 04:47:53;;;;;;;5.50;3.77;;;;;;;;;;5017004;28;20562;-57
2023/07/04 04:50:20;;;;;;;6.03;4.00;;;;;;;;;;5016923;28;20558;-57
2023/07/04 04:52:49;;;;;;;6.80;4.20;;;;;;;;;;5016831;28;20547;-58
2023/07/04 04:55:16;;;;;;;4.33;3.93;;;;;;;;;;5016435;28;20452;-55
2023/07/04 04:57:43;;;;;;;5.63;3.50;;;;;;;;;;5016927;28;20548;-57
2023/07/04 05:00:12;;;;;;;5.10;3.50;;;;;;;;;;5016687;28;20569;-55
2023/07/04 05:02:38;;;;;;;6.67;3.57;;;;;;;;;;5016674;28;20514;-56
2023/07/04 05:05:06;;;;;;;5.97;3.83;;;;;;;;;;5016624;28;20484;-57
2023/07/04 05:07:33;;;;;;;7.87;3.93;;;;;;;;;;5016405;28;21016;-57
2023/07/04 05:10:02;;;;;;;6.90;3.27;;;;;;;;;;5016703;28;20546;-57
2023/07/04 05:12:29;;;;;;;5.80;3.83;;;;;;;;;;5016674;28;20503;-57
2023/07/04 05:14:56;;;;;;;7.80;4.30;;;;;;;;;;5016516;28;20460;-57
2023/07/04 05:17:23;;;;;;;5.83;3.70;;;;;;;;;;5016357;28;20846;-56
2023/07/04 05:19:51;;;;;;;7.27;3.67;;;;;;;;;;5016196;28;20489;-56
2023/07/04 05:22:18;;;;;;;4.70;3.63;;;;;;;;;;5016154;28;20552;-57
2023/07/04 05:24:45;;;;;;;4.70;4.00;;;;;;;;;;5016214;28;20957;-57
2023/07/04 05:27:13;;;;;;;6.03;3.40;;;;;;;;;;5015974;28;21015;-58
2023/07/04 05:29:40;;;;;;;4.00;3.60;;;;;;;;;;5016112;28;20549;-56
2023/07/04 05:32:08;;;;;;;5.20;3.50;;;;;;;;;;5016096;28;20457;-57
2023/07/04 05:34:35;;;;;;;4.97;3.80;;;;;;;;;;5015950;28;20457;-56
2023/07/04 05:37:02;;;;;;;6.20;3.37;;;;;;;;;;5015844;28;20537;-56
2023/07/04 05:39:29;;;;;;;4.57;3.67;;;;;;;;;;5015889;28;20478;-57
2023/07/04 05:41:56;;;;;;;8.60;4.37;;;;;;;;;;5015983;28;20882;-58
2023/07/04 05:44:24;;;;;;;6.60;3.87;;;;;;;;;;5015790;28;20454;-56
2023/07/04 05:46:53;;;;;;;4.70;3.80;;;;;;;;;;5015767;28;20552;-57
2023/07/04 05:49:20;;;;;;;6.90;4.60;;;;;;;;;;5015614;28;20554;-57
2023/07/04 05:51:47;;;;;;;8.20;4.57;;;;;;;;;;5015834;28;20958;-57
2023/07/04 05:54:14;;;;;;;3.93;3.10;;;;;;;;;;5014544;28;20487;-56
2023/07/04 05:56:41;;;;;;;6.10;4.10;;;;;;;;;;5015418;28;20517;-57
2023/07/04 05:59:09;;;;;;;4.50;3.60;;;;;;;;;;5015463;28;20454;-58
2023/07/04 06:01:39;;;;;;;6.17;3.73;;;;;;;;;;5015873;28;20945;-58
2023/07/04 06:04:07;;;;;;;5.60;3.97;;;;;;;;;;5015422;28;20451;-57
2023/07/04 06:06:36;;;;;;;7.20;3.90;;;;;;;;;;5015528;28;20457;-57
2023/07/04 06:09:04;;;;;;;7.27;3.90;;;;;;;;;;5015426;28;20547;-57
2023/07/04 06:11:32;;;;;;;8.13;3.67;;;;;;;;;;5015385;28;20450;-58
2023/07/04 06:13:59;;;;;;;6.93;3.73;;;;;;;;;;5015305;28;20479;-57
2023/07/04 06:16:26;;;;;;;4.43;3.90;;;;;;;;;;5015086;28;20456;-56
2023/07/04 06:18:54;;;;;;;5.13;3.23;;;;;;;;;;5015246;28;20446;-58
2023/07/04 06:21:22;;;;;;;4.87;3.33;;;;;;;;;;5015136;28;20486;-57
2023/07/04 06:23:50;;;;;;;4.40;4.00;;;;;;;;;;5015116;28;20545;-57
2023/07/04 06:26:17;;;;;;;7.17;3.80;;;;;;;;;;5015102;28;20443;-57
2023/07/04 06:28:44;;;;;;;4.87;3.97;;;;;;;;;;5014913;28;20450;-59
2023/07/04 06:31:12;;;;;;;6.70;3.90;;;;;;;;;;5014823;28;20451;-56
2023/07/04 06:33:39;;;;;;;5.00;4.27;;;;;;;;;;5014953;28;20446;-57
2023/07/04 06:36:10;;;;;;;9.50;4.20;;;;;;;;;;5014932;28;21038;-57
2023/07/04 06:38:36;;;;;;;9.60;3.63;;;;;;;;;;5014850;28;20537;-58
2023/07/04 06:41:04;;;;;;;11.00;3.60;;;;;;;;;;5014649;28;20520;-56
2023/07/04 06:43:32;;;;;;;6.70;4.10;;;;;;;;;;5014545;28;20453;-57
2023/07/04 06:45:59;;;;;;;5.57;3.40;;;;;;;;;;5014755;28;20897;-57
2023/07/04 06:48:27;;;;;;;5.07;3.37;;;;;;;;;;5014614;28;20459;-57
2023/07/04 06:50:57;;;;;;;4.77;3.50;;;;;;;;;;5014460;28;20455;-58
2023/07/04 06:53:25;;;;;;;9.37;4.10;;;;;;;;;;5014525;28;20455;-58
2023/07/04 06:55:52;;;;;;;6.13;4.07;;;;;;;;;;5014246;28;20565;-57
2023/07/04 06:58:19;;;;;;;5.70;3.43;;;;;;;;;;5014287;28;20454;-57
2023/07/04 07:00:46;;;;;;;10.43;3.33;;;;;;;;;;5014366;28;20489;-58
2023/07/04 07:03:13;;;;;;;6.20;3.50;;;;;;;;;;5014371;28;20558;-57
2023/07/04 07:05:40;;;;;;;7.03;3.60;;;;;;;;;;5014000;28;20451;-57
2023/07/04 07:08:07;;;;;;;5.70;3.97;;;;;;;;;;5014186;28;20485;-57
2023/07/04 07:10:36;;;;;;;4.67;3.53;;;;;;;;;;5014006;28;20457;-57
2023/07/04 07:13:03;;;;;;;4.33;2.80;;;;;;;;;;5014127;28;20946;-57
2023/07/04 07:15:30;;;;;;;6.03;3.20;;;;;;;;;;5014228;28;20446;-57
2023/07/04 07:17:57;;;;;;;3.60;3.10;;;;;;;;;;5013981;28;20450;-55
2023/07/04 07:20:24;;;;;;;6.87;3.50;;;;;;;;;;5013897;28;20477;-57
2023/07/04 07:22:51;;;;;;;4.80;3.90;;;;;;;;;;5013862;28;20534;-56
2023/07/04 07:25:18;;;;;;;6.13;3.00;;;;;;;;;;5013865;28;20646;-57
2023/07/04 07:27:46;;;;;;;3.73;3.20;;;;;;;;;;5014103;28;20457;-57
2023/07/04 07:30:13;;;;;;;5.27;3.00;;;;;;;;;;5013897;28;20505;-57
2023/07/04 07:32:40;;;;;;;5.90;3.50;;;;;;;;;;5013695;28;20957;-57
2023/07/04 07:35:07;;;;;;;6.50;3.37;;;;;;;;;;5013799;28;20538;-57
2023/07/04 07:37:34;;;;;;;4.43;3.00;;;;;;;;;;5016444;28;20457;-57
2023/07/04 07:40:03;;;;;;;5.27;2.80;;;;;;;;;;5014583;28;20485;-58
2023/07/04 07:42:30;;;;;;;3.67;2.57;;;;;;;;;;5014336;28;20450;-58
2023/07/04 07:44:58;;;;;;;9.67;3.20;;;;;;;;;;5033292;28;20450;-57
2023/07/04 07:47:25;;;;;;;4.50;3.80;;;;;;;;;;5032799;28;20456;-57
2023/07/04 07:49:52;;;;;;;5.30;3.13;;;;;;;;;;5033160;28;20456;-56
2023/07/04 07:52:19;;;;;;;8.63;4.80;;;;;;;;;;5033137;28;20556;-58
2023/07/04 07:54:46;;;;;;;4.70;3.10;;;;;;;;;;5031788;28;20545;-58
2023/07/04 07:57:13;;;;;;;3.30;2.80;;;;;;;;;;5013307;28;20945;-57
2023/07/04 07:59:40;;;;;;;5.80;3.33;;;;;;;;;;5013332;28;20489;-58
2023/07/04 08:02:13;;;;;;;3.37;2.47;;;;;;;;;;5013508;28;20892;-58
2023/07/04 08:04:39;;;;;;;4.50;2.67;;;;;;;;;;5013274;28;20461;-58
2023/07/04 08:07:07;;;;;;;5.00;2.77;;;;;;;;;;5013369;28;20563;-58
2023/07/04 08:09:34;;;;;;;3.70;2.70;;;;;;;;;;5013164;28;20972;-59
2023/07/04 08:12:01;;;;;;;3.23;2.37;;;;;;;;;;5013259;28;20448;-58
2023/07/04 08:14:28;;;;;;;2.97;2.37;;;;;;;;;;5013128;28;20456;-57
2023/07/04 08:16:56;;;;;;;3.57;2.93;;;;;;;;;;5012409;28;20542;-55
2023/07/04 08:19:25;;;;;;;2.73;2.43;;;;;;;;;;5012866;28;20453;-58
2023/07/04 08:21:52;;;;;;;5.47;3.20;;;;;;;;;;5012662;28;20525;-58
2023/07/04 08:24:20;;;;;;;5.77;3.20;;;;;;;;;;5013156;28;20450;-57
2023/07/04 08:26:47;;;;;;;5.17;3.00;;;;;;;;;;5013061;28;20458;-59
2023/07/04 08:29:15;;;;;;;3.93;2.67;;;;;;;;;;5012807;28;20450;-57
2023/07/04 08:31:42;;;;;;;3.83;2.87;;;;;;;;;;5017675;28;20552;-55
2023/07/04 08:34:10;;;;;;;4.73;2.80;;;;;;;;;;5032516;28;20492;-55
2023/07/04 08:36:39;;;;;;;2.77;2.20;;;;;;;;;;5032757;28;20464;-57
2023/07/04 08:39:06;;;;;;;6.17;3.20;;;;;;;;;;5032609;28;20818;-54
2023/07/04 08:41:39;;;;;;;2.77;2.53;;;;;;;;;;5032352;28;20572;-58
2023/07/04 08:44:09;;;;;;;3.83;2.67;;;;;;;;;;5032521;28;20544;-57
2023/07/04 08:46:39;;;;;;;2.83;2.23;;;;;;;;;;5032389;28;20438;-57
2023/07/04 08:49:06;;;;;;;5.20;2.57;;;;;;;;;;5032618;28;20477;-59
2023/07/04 08:51:36;;;;;;;3.10;2.70;;;;;;;;;;5032328;28;20511;-57
2023/07/04 08:54:06;;;;;;;3.60;2.87;;;;;;;;;;5032419;28;20457;-58
2023/07/04 08:56:34;;;;;;;6.70;2.90;;;;;;;;;;5032190;28;20567;-58
2023/07/04 08:59:08;;;;;;;4.67;2.40;;;;;;;;;;5032116;28;20791;-57
2023/07/04 09:01:37;;;;;;;4.83;2.67;;;;;;;;;;5032361;28;20483;-59
2023/07/04 09:04:06;;;;;;;4.80;2.50;;;;;;;;;;5032224;28;21041;-59
2023/07/04 09:06:35;;;;;;;3.47;2.40;;;;;;;;;;5032348;28;20961;-57
2023/07/04 09:09:14;;;;;;;2.27;2.07;;;;;;;;;;5032111;28;20450;-57
2023/07/04 09:11:42;;;;;;;3.30;2.13;;;;;;;;;;5032326;28;20453;-59
2023/07/04 09:14:11;;;;;;;3.60;2.37;;;;;;;;;;5014658;28;20460;-56
2023/07/04 09:16:40;;;;;;;6.27;3.07;;;;;;;;;;5032346;28;20456;-58
2023/07/04 09:19:08;;;;;;;5.43;2.57;;;;;;;;;;5032235;28;20485;-58
2023/07/04 09:21:36;;;;;;;5.73;2.37;;;;;;;;;;5032059;28;20482;-58
2023/07/04 09:24:03;;;;;;;5.97;2.63;;;;;;;;;;5032130;28;20453;-58
2023/07/04 09:26:35;;;;;;;8.27;2.80;;;;;;;;;;5032349;28;20544;-57
2023/07/04 09:29:02;;;;;;;3.47;2.33;;;;;;;;;;5033878;28;20464;-57
2023/07/04 09:31:30;;;;;;;3.63;2.30;;;;;;;;;;5032720;28;20447;-58
2023/07/04 09:33:57;;;;;;;2.47;2.13;;;;;;;;;;5015943;28;20450;-57
2023/07/04 09:36:27;;;;;;;10.03;2.53;;;;;;;;;;5015734;28;20568;-57
2023/07/04 09:38:55;;;;;;;4.07;2.10;;;;;;;;;;5016029;28;20545;-58
2023/07/04 09:41:25;;;;;;;3.50;2.53;;;;;;;;;;5015866;28;20484;-58
2023/07/04 09:43:54;;;;;;;2.57;2.20;;;;;;;;;;5015808;28;20541;-57
2023/07/04 09:46:23;;;;;;;3.57;2.80;;;;;;;;;;5015711;28;20942;-56
2023/07/04 09:48:50;;;;;;;2.83;2.47;;;;;;;;;;5015477;28;20459;-57
2023/07/04 09:51:22;;;;;;;7.60;3.03;;;;;;;;;;5015768;28;20887;-57
2023/07/04 09:53:49;;;;;;;6.20;3.80;;;;;;;;;;5015704;28;20486;-59
2023/07/04 09:56:26;;;;;;;2.20;2.00;;;;;;;;;;5015268;28;20565;-58
2023/07/04 09:59:10;;;;;;;4.03;2.70;;;;;;;;;;5015339;28;20458;-58
2023/07/04 10:01:39;;;;;;;4.53;3.10;;;;;;;;;;5015215;28;20482;-58
2023/07/04 10:04:07;;;;;;;2.70;2.47;;;;;;;;;;5015122;28;20478;-53
2023/07/04 10:06:36;;;;;;;3.83;2.60;;;;;;;;;;5015274;28;20465;-54
2023/07/04 10:09:05;;;;;;;4.15;2.50;;;;;;;;;;5015108;28;20459;-54
2023/07/04 10:11:34;;;;;;;6.25;2.38;;;;;;;;;;5014838;28;20930;-55
2023/07/04 10:14:02;;;;;;;2.90;2.60;;;;;;;;;;5015077;28;20282;-54
2023/07/04 10:16:30;;;;;;;3.93;2.07;;;;;;;;;;5015408;28;20538;-56
2023/07/04 10:19:09;;;;;;;3.87;2.30;;;;;;;;;;5015161;28;20819;-53
2023/07/04 10:21:41;;;;;;;6.30;2.70;;;;;;;;;;5015050;28;20544;-54
2023/07/04 10:24:08;;;;;;;2.83;2.00;;;;;;;;;;5015008;28;20458;-57
2023/07/04 10:26:37;;;;;;;2.67;2.30;;;;;;;;;;5021307;28;20775;-58
2023/07/04 10:29:04;;;;;;;4.03;2.13;;;;;;;;;;5025335;28;20451;-57
2023/07/04 10:31:32;;;;;;;5.33;2.07;;;;;;;;;;5025061;28;20549;-58
2023/07/04 10:34:03;;;;;;;5.40;2.13;;;;;;;;;;5022540;28;20448;-57
2023/07/04 10:36:32;;;;;;;5.03;2.77;;;;;;;;;;5023213;28;20700;-56
2023/07/04 10:39:00;;;;;;;2.20;1.87;;;;;;;;;;5023800;28;20545;-58
2023/07/04 10:41:31;;;;;;;4.50;2.10;;;;;;;;;;5019238;28;20478;-57
2023/07/04 10:44:02;;;;;;;3.97;1.80;;;;;;;;;;5014697;28;20541;-59
2023/07/04 10:46:30;;;;;;;3.30;2.50;;;;;;;;;;5014503;28;20454;-58
2023/07/04 10:49:02;;;;;;;6.50;2.23;;;;;;;;;;5014497;28;21048;-59
2023/07/04 10:51:31;;;;;;;2.90;1.90;;;;;;;;;;5014307;28;20463;-56
2023/07/04 10:53:59;;;;;;;2.60;1.70;;;;;;;;;;5014553;28;20455;-59
2023/07/04 10:56:29;;;;;;;3.10;1.93;;;;;;;;;;5014254;28;20569;-59
2023/07/04 10:58:59;;;;;;;2.87;2.17;;;;;;;;;;5019272;28;20446;-60
2023/07/04 11:01:30;;;;;;;4.40;2.30;;;;;;;;;;5030657;28;20466;-57
2023/07/04 11:04:00;;;;;;;4.00;2.23;;;;;;;;;;5022460;28;20529;-59
2023/07/04 11:06:32;;;;;;;3.33;1.70;;;;;;;;;;5023489;28;20454;-57
2023/07/04 11:09:00;;;;;;;4.53;2.13;;;;;;;;;;5028481;28;20537;-58
2023/07/04 11:11:28;;;;;;;2.33;2.03;;;;;;;;;;5031595;28;20453;-59
2023/07/04 11:13:57;;;;;;;6.43;2.30;;;;;;;;;;5013881;28;20447;-59
2023/07/04 11:16:27;;;;;;;2.90;2.13;;;;;;;;;;5013902;28;20867;-59
2023/07/04 11:19:00;;;;;;;4.23;1.97;;;;;;;;;;5014307;28;20451;-61
2023/07/04 11:21:27;;;;;;;3.33;2.17;;;;;;;;;;5013718;28;20613;-60
2023/07/04 11:24:09;;;;;;;3.23;1.93;;;;;;;;;;5013784;28;20541;-60
2023/07/04 11:26:50;;;;;;;4.93;2.20;;;;;;;;;;5016566;28;20458;-56
2023/07/04 11:29:18;;;;;;;2.77;2.07;;;;;;;;;;5033243;28;20449;-55
2023/07/04 11:32:00;;;;;;;5.77;2.00;;;;;;;;;;5033654;28;20517;-59
2023/07/04 11:34:42;;;;;;;3.80;1.90;;;;;;;;;;5030275;28;20456;-59
2023/07/04 11:37:10;;;;;;;5.50;3.57;;;;;;;;;;5033105;28;20499;-59
2023/07/04 11:39:39;;;;;;;3.50;2.43;;;;;;;;;;5033531;28;20450;-58
2023/07/04 11:42:17;;;;;;;4.67;2.53;;;;;;;;;;5013574;28;20521;-59
2023/07/04 11:44:49;;;;;;;5.97;2.40;;;;;;;;;;5033389;28;20929;-59
2023/07/04 11:47:18;;;;;;;5.10;2.53;;;;;;;;;;5014907;28;20442;-59
2023/07/04 11:49:55;;;;;;;3.77;2.53;;;;;;;;;;5013155;28;20473;-59
2023/07/04 11:52:25;;;;;;;3.77;2.07;;;;;;;;;;5012656;28;20504;-58
2023/07/04 11:54:58;;;;;;;5.27;3.27;;;;;;;;;;5022528;28;20452;-54
2023/07/04 11:57:25;;;;;;;3.77;2.50;;;;;;;;;;5029820;28;20510;-59
2023/07/04 11:59:52;;;;;;;4.40;2.10;;;;;;;;;;5023446;28;20456;-59
2023/07/04 12:02:26;;;;;;;3.67;2.33;;;;;;;;;;5022504;28;20843;-56
2023/07/04 12:04:53;;;;;;;2.73;2.33;;;;;;;;;;5012960;28;20446;-61
2023/07/04 12:07:30;;;;;;;3.73;2.37;;;;;;;;;;5013088;28;20557;-61
2023/07/04 12:10:04;;;;;;;5.93;3.10;;;;;;;;;;5013131;28;20539;-59
2023/07/04 12:12:34;;;;;;;3.73;2.43;;;;;;;;;;5012878;28;20476;-59
2023/07/04 12:15:06;;;;;;;4.30;2.70;;;;;;;;;;5013340;28;20451;-59
2023/07/04 12:17:35;;;;;;;5.00;3.10;;;;;;;;;;5013135;28;20455;-59
2023/07/04 12:20:03;;;;;;;2.60;2.30;;;;;;;;;;5012350;28;20518;-58
2023/07/04 12:22:31;;;;;;;5.17;2.90;;;;;;;;;;5012610;28;20474;-59
2023/07/04 12:25:09;;;;;;;4.03;2.50;;;;;;;;;;5012578;28;20558;-59
2023/07/04 12:27:36;;;;;;;2.70;2.40;;;;;;;;;;5013179;28;20795;-59
2023/07/04 12:30:05;;;;;;;4.57;2.93;;;;;;;;;;5012792;28;20505;-57
2023/07/04 12:32:37;;;;;;;2.70;2.30;;;;;;;;;;5012976;28;20454;-57
2023/07/04 12:35:06;;;;;;;3.77;2.70;;;;;;;;;;5012880;28;20459;-56
2023/07/04 12:37:39;;;;;;;4.77;2.70;;;;;;;;;;5012257;28;20509;-56
2023/07/04 12:40:13;;;;;;;5.97;3.10;;;;;;;;;;5023038;28;20450;-56
2023/07/04 12:42:40;;;;;;;5.90;2.60;;;;;;;;;;5020647;28;20573;-52
2023/07/04 12:45:10;;;;;;;4.00;2.40;;;;;;;;;;5022805;28;20494;-55
2023/07/04 12:47:37;;;;;;;4.33;2.80;;;;;;;;;;5022587;28;20453;-53
2023/07/04 12:50:05;;;;;;;3.77;2.80;;;;;;;;;;5012170;28;20443;-53
2023/07/04 12:52:32;;;;;;;4.70;2.80;;;;;;;;;;5012373;28;20525;-54
2023/07/04 12:55:01;;;;;;;3.57;2.60;;;;;;;;;;5012291;28;20530;-54
2023/07/04 12:57:30;;;;;;;2.90;2.27;;;;;;;;;;5012140;28;20529;-52
2023/07/04 13:00:09;;;;;;;2.80;2.47;;;;;;;;;;5012121;28;20541;-52
2023/07/04 13:02:36;;;;;;;5.30;2.43;;;;;;;;;;5012344;28;20528;-55
2023/07/04 13:05:05;;;;;;;6.77;2.53;;;;;;;;;;5016017;28;20486;-55
2023/07/04 13:07:33;;;;;;;6.53;2.97;;;;;;;;;;5016154;28;20549;-54
2023/07/04 13:10:00;;;;;;;5.30;2.40;;;;;;;;;;5016246;28;20462;-56
2023/07/04 13:12:28;;;;;;;4.90;2.50;;;;;;;;;;5016375;28;20450;-52
2023/07/04 13:15:06;;;;;;;7.40;2.60;;;;;;;;;;5016142;28;20533;-54
2023/07/04 13:17:33;;;;;;;3.30;2.60;;;;;;;;;;5016405;28;20541;-55
2023/07/04 13:20:10;;;;;;;4.53;2.10;;;;;;;;;;5016498;28;21021;-55
2023/07/04 13:22:37;;;;;;;6.00;2.27;;;;;;;;;;5016286;28;20517;-57
2023/07/04 13:25:19;;;;;;;5.73;2.50;;;;;;;;;;5016144;28;20542;-55
2023/07/04 13:27:46;;;;;;;5.10;2.50;;;;;;;;;;5016013;28;20482;-55
2023/07/04 13:30:25;;;;;;;3.67;2.60;;;;;;;;;;5016233;28;20954;-56
2023/07/04 13:32:52;;;;;;;6.80;2.70;;;;;;;;;;5016198;28;20549;-55
2023/07/04 13:35:24;;;;;;;6.53;3.33;;;;;;;;;;5016070;28;20891;-53
2023/07/04 13:37:51;;;;;;;3.73;2.80;;;;;;;;;;5016003;28;20545;-56
2023/07/04 13:40:18;;;;;;;2.77;2.53;;;;;;;;;;5015814;28;20485;-55
2023/07/04 13:42:59;;;;;;;4.07;2.63;;;;;;;;;;5015940;28;20486;-56
2023/07/04 13:45:29;;;;;;;4.40;2.63;;;;;;;;;;5015634;28;20553;-55
2023/07/04 13:47:56;;;;;;;4.67;3.33;;;;;;;;;;5015726;28;21021;-56
2023/07/04 13:50:24;;;;;;;5.00;2.47;;;;;;;;;;5015664;28;20448;-55
2023/07/04 13:52:51;;;;;;;5.30;2.40;;;;;;;;;;5015872;28;20508;-55
2023/07/04 13:55:18;;;;;;;4.40;2.67;;;;;;;;;;5015682;28;20537;-55
2023/07/04 13:57:45;;;;;;;3.17;2.30;;;;;;;;;;5015625;28;20550;-55
2023/07/04 14:00:13;;;;;;;3.70;2.70;;;;;;;;;;5015377;28;20488;-55
2023/07/04 14:02:41;;;;;;;3.50;2.83;;;;;;;;;;5015377;28;20561;-53
2023/07/04 14:05:09;;;;;;;4.30;2.80;;;;;;;;;;5015254;28;20454;-54
2023/07/04 14:07:36;;;;;;;4.17;2.50;;;;;;;;;;5015511;28;20535;-56
2023/07/04 14:10:04;;;;;;;2.80;2.40;;;;;;;;;;5015463;28;20488;-55
2023/07/04 14:12:30;;;;;;;3.27;2.63;;;;;;;;;;5015321;28;20458;-55
2023/07/04 14:14:57;;;;;;;4.50;2.17;;;;;;;;;;5014235;28;20542;-55
2023/07/04 14:17:24;;;;;;;6.63;3.50;;;;;;;;;;5015196;28;20537;-55
2023/07/04 14:19:54;;;;;;;7.40;3.07;;;;;;;;;;5015054;28;20558;-55
2023/07/04 14:22:21;;;;;;;2.60;2.40;;;;;;;;;;5015236;28;20478;-54
2023/07/04 14:24:47;;;;;;;4.40;2.53;;;;;;;;;;5015175;28;20984;-55
2023/07/04 14:27:15;;;;;;;4.63;2.50;;;;;;;;;;5014973;28;20546;-56
2023/07/04 14:29:42;;;;;;;3.67;2.53;;;;;;;;;;5015013;28;20464;-54
2023/07/04 14:32:09;;;;;;;3.80;2.20;;;;;;;;;;5014929;28;20901;-56
2023/07/04 14:34:36;;;;;;;3.90;2.40;;;;;;;;;;5014836;28;20537;-55
2023/07/04 14:37:04;;;;;;;3.90;2.40;;;;;;;;;;5014913;28;20450;-55
2023/07/04 14:39:31;;;;;;;2.80;2.60;;;;;;;;;;5014745;28;21037;-53
2023/07/04 14:41:58;;;;;;;3.07;2.57;;;;;;;;;;5014733;28;20508;-56
2023/07/04 14:44:25;;;;;;;3.20;2.23;;;;;;;;;;5014640;28;20454;-56
2023/07/04 14:46:52;;;;;;;4.00;2.50;;;;;;;;;;5014662;28;20493;-53
2023/07/04 14:49:19;;;;;;;5.10;2.50;;;;;;;;;;5014683;28;20453;-54
2023/07/04 14:51:46;;;;;;;4.70;2.67;;;;;;;;;;5014559;28;20542;-55